Česky Dansk Deutsch English Español Suomi Français Magyar Italiano Nederlands norsk Polski Português svenska Türkçe

 

Het Weer

Istres (Frankrijk)

22:00, 12 augustus 2016 (GMT)

NWNNE
WE
SWSSE
Home            
Istres Salon Marseille / Marignane Aix Les Milles Nimes / Garons Nimes / Courbessac Orange Montpellier St-Auban-Sur-Durance Hyeres Le Luc Montelimar Beziers / Vias St-Raphael Mende / Brenoux Cannes Nice Perpignan Le Puy Cassagnes-Begonhes Grenoble / St. Geoirs Carcassonne Rodez

Om een weerknop op uw website of weblog te plaatsen, copieer onderstaande code en plak die in uw pagina. In het eerste vakje staat HTML-code, in het tweede vakje UBB-code.


Add to Google

Details

Wind speed:1 bf, 1 kn, 0.5 m/s, 1.2 miles/h, 1.9 km/h
Wind direction:W, 260°
Visibility:Greater than 10000 m, 10 km, 32800 ft, 6.2 miles
Clouds:CAVOC
Temperature:20°C, 68°F
Dew-point:15°C, 59°F
Atmospheric pressure:1024 hPa, 768.1 mmHg, 30.24 inHg, 1.011 atm
Relative humidity:72.9 %
METAR:LFMI 122200Z AUTO 26001KT CAVOK 20/15 Q1024 NOSIG

Snelkoppelingen

Actuele weersinformatie van de hele wereld. Voeg locaties toe met het plus (+) symbool. Deze snelkoppelingen kunnen worden toegevoegd aan Google.

Lid van de Technetium groep

website free tracking
StatCounter NetStat W3C Validator

07-12-2022 11:55:18
astro.technetium.be money.technetium.be phote.technetium.be tafeltennistafel.technetium.be www.ligfiets.net